Time;durP1;ratioP1;P1;durP2;ratioP2;P2;SDS_P1;SDS_P2;PMS_P1;PMS_P2;Temp;Humidity;BMP_temperature;BMP_pressure;BME280_temperature;BME280_humidity;BME280_pressure;Samples;Min_cycle;Max_cycle;Signal;HPM_P1;HPM_P2
2022/05/07 00:01:56;;;;;;;6.68;6.18;;;;;;;;;;5056720;28;20025;-64
2022/05/07 00:04:22;;;;;;;6.93;6.43;;;;;;;;;;5062098;28;20036;-63
2022/05/07 00:06:48;;;;;;;6.88;6.38;;;;;;;;;;5053713;28;20612;-63
2022/05/07 00:09:13;;;;;;;5.97;5.38;;;;;;;;;;5054079;28;20028;-63
2022/05/07 00:11:39;;;;;;;6.25;5.75;;;;;;;;;;5054512;28;20132;-63
2022/05/07 00:14:04;;;;;;;7.10;6.60;;;;;;;;;;5051820;28;20383;-63
2022/05/07 00:19:13;;;;;;;5.55;5.15;;;;;;;;;;5055782;28;20056;-63
2022/05/07 00:21:39;;;;;;;6.72;6.22;;;;;;;;;;5052355;28;20060;-63
2022/05/07 00:24:05;;;;;;;6.35;5.88;;;;;;;;;;5052050;28;20033;-63
2022/05/07 00:26:30;;;;;;;5.97;5.57;;;;;;;;;;5051998;28;20037;-63
2022/05/07 00:28:55;;;;;;;5.85;5.45;;;;;;;;;;5052987;28;20060;-63
2022/05/07 00:31:21;;;;;;;6.38;5.88;;;;;;;;;;5053501;28;20041;-63
2022/05/07 00:33:46;;;;;;;6.15;5.72;;;;;;;;;;5055419;28;20025;-63
2022/05/07 00:36:12;;;;;;;6.13;5.72;;;;;;;;;;5054519;28;20029;-63
2022/05/07 00:38:37;;;;;;;6.75;6.25;;;;;;;;;;5054021;28;20040;-63
2022/05/07 00:41:02;;;;;;;6.30;5.80;;;;;;;;;;5052803;28;20028;-63
2022/05/07 00:43:39;;;;;;;6.50;6.00;;;;;;;;;;5055295;28;20040;-63
2022/05/07 00:46:05;;;;;;;6.43;5.82;;;;;;;;;;5056802;28;20025;-63
2022/05/07 00:48:31;;;;;;;5.80;5.40;;;;;;;;;;5053804;28;20040;-63
2022/05/07 00:53:42;;;;;;;7.65;6.82;;;;;;;;;;5055702;28;20039;-63
2022/05/07 00:56:08;;;;;;;7.20;6.50;;;;;;;;;;5052155;28;20449;-62
2022/05/07 00:58:38;;;;;;;6.07;5.57;;;;;;;;;;5053610;28;20043;-63
2022/05/07 01:01:03;;;;;;;6.47;6.00;;;;;;;;;;5054233;28;20142;-63
2022/05/07 01:03:29;;;;;;;6.68;6.18;;;;;;;;;;5054888;28;20406;-63
2022/05/07 01:05:54;;;;;;;6.85;6.25;;;;;;;;;;5052462;28;20089;-63
2022/05/07 01:08:20;;;;;;;6.45;5.95;;;;;;;;;;5053202;28;20154;-63
2022/05/07 01:10:49;;;;;;;6.55;6.05;;;;;;;;;;5053219;28;20082;-63
2022/05/07 01:13:14;;;;;;;6.03;5.63;;;;;;;;;;5053816;28;20040;-63
2022/05/07 01:15:53;;;;;;;5.55;5.15;;;;;;;;;;5051253;28;20036;-63
2022/05/07 01:18:18;;;;;;;5.95;5.55;;;;;;;;;;5053426;28;20418;-63
2022/05/07 01:20:43;;;;;;;6.20;5.80;;;;;;;;;;5050106;28;20058;-64
2022/05/07 01:23:09;;;;;;;5.97;5.57;;;;;;;;;;5059885;28;20179;-63
2022/05/07 01:25:34;;;;;;;5.88;5.47;;;;;;;;;;5054083;28;20442;-63
2022/05/07 01:28:00;;;;;;;6.70;6.20;;;;;;;;;;5053090;28;20036;-63
2022/05/07 01:30:25;;;;;;;5.40;5.00;;;;;;;;;;5049198;28;20065;-63
2022/05/07 01:32:51;;;;;;;6.40;6.00;;;;;;;;;;5050458;28;20086;-63
2022/05/07 01:35:17;;;;;;;6.38;5.95;;;;;;;;;;5051707;28;20033;-63
2022/05/07 01:37:42;;;;;;;6.53;6.05;;;;;;;;;;5048417;28;20032;-63
2022/05/07 01:40:08;;;;;;;6.50;6.00;;;;;;;;;;5049778;28;20108;-63
2022/05/07 01:42:34;;;;;;;5.68;5.28;;;;;;;;;;5051673;28;20045;-64
2022/05/07 01:44:59;;;;;;;6.10;5.70;;;;;;;;;;5053935;28;20013;-63
2022/05/07 01:50:09;;;;;;;6.07;5.68;;;;;;;;;;5050544;28;20041;-63
2022/05/07 01:52:34;;;;;;;6.07;5.65;;;;;;;;;;5050750;28;20049;-64
2022/05/07 01:55:00;;;;;;;6.82;6.10;;;;;;;;;;5051538;28;20045;-63
2022/05/07 01:57:25;;;;;;;5.85;5.45;;;;;;;;;;5053044;28;20033;-63
2022/05/07 01:59:50;;;;;;;5.60;5.20;;;;;;;;;;5035028;28;20040;-62
2022/05/07 02:02:16;;;;;;;6.10;5.70;;;;;;;;;;5056785;28;20029;-62
2022/05/07 02:04:41;;;;;;;6.20;5.70;;;;;;;;;;5056478;28;20048;-62
2022/05/07 02:07:07;;;;;;;6.88;6.28;;;;;;;;;;5058991;28;20571;-62
2022/05/07 02:09:33;;;;;;;7.00;6.50;;;;;;;;;;5058358;28;20029;-62
2022/05/07 02:11:58;;;;;;;6.63;6.13;;;;;;;;;;5057505;28;20517;-62
2022/05/07 02:14:24;;;;;;;6.85;6.25;;;;;;;;;;5057301;28;20110;-62
2022/05/07 02:16:49;;;;;;;7.55;6.95;;;;;;;;;;5060698;28;20174;-62
2022/05/07 02:19:14;;;;;;;6.30;5.80;;;;;;;;;;5057288;28;20521;-62
2022/05/07 02:21:40;;;;;;;6.32;5.82;;;;;;;;;;5061036;28;20033;-63
2022/05/07 02:24:05;;;;;;;6.38;5.88;;;;;;;;;;5059088;28;20031;-63
2022/05/07 02:26:31;;;;;;;7.15;6.65;;;;;;;;;;5053503;28;20135;-62
2022/05/07 02:28:56;;;;;;;6.43;5.95;;;;;;;;;;5055713;28;20044;-63
2022/05/07 02:31:21;;;;;;;6.40;5.90;;;;;;;;;;5056401;28;20096;-62
2022/05/07 02:33:47;;;;;;;6.00;5.55;;;;;;;;;;5057742;28;20036;-62
2022/05/07 02:36:13;;;;;;;6.85;6.35;;;;;;;;;;5056979;28;20037;-62
2022/05/07 02:38:39;;;;;;;7.40;6.90;;;;;;;;;;5059062;28;20039;-63
2022/05/07 02:43:48;;;;;;;6.20;5.80;;;;;;;;;;5060797;28;20028;-62
2022/05/07 02:46:14;;;;;;;6.93;6.43;;;;;;;;;;5058552;28;20028;-62
2022/05/07 02:48:44;;;;;;;6.60;6.13;;;;;;;;;;5059492;28;20048;-62
2022/05/07 02:51:10;;;;;;;6.95;6.45;;;;;;;;;;5055545;28;20095;-62
2022/05/07 02:53:36;;;;;;;6.68;6.07;;;;;;;;;;5058187;28;20039;-62
2022/05/07 02:56:01;;;;;;;5.70;5.30;;;;;;;;;;5057637;28;20033;-62
2022/05/07 02:58:26;;;;;;;6.55;6.05;;;;;;;;;;5056424;28;20179;-62
2022/05/07 03:00:53;;;;;;;6.35;5.85;;;;;;;;;;5056208;28;20028;-62
2022/05/07 03:03:19;;;;;;;7.40;6.90;;;;;;;;;;5058070;28;20075;-62
2022/05/07 03:05:44;;;;;;;7.28;6.78;;;;;;;;;;5057781;28;20805;-62
2022/05/07 03:08:09;;;;;;;6.80;6.30;;;;;;;;;;5055525;28;20024;-62
2022/05/07 03:10:35;;;;;;;7.38;6.88;;;;;;;;;;5054671;28;20458;-62
2022/05/07 03:13:00;;;;;;;6.68;6.18;;;;;;;;;;5051846;28;20067;-63
2022/05/07 03:15:26;;;;;;;7.25;6.75;;;;;;;;;;5055926;28;20047;-63
2022/05/07 03:17:51;;;;;;;6.90;6.40;;;;;;;;;;5056763;28;20048;-63
2022/05/07 03:20:17;;;;;;;6.30;5.90;;;;;;;;;;5053109;28;20120;-63
2022/05/07 03:22:44;;;;;;;7.80;7.18;;;;;;;;;;5062541;28;20024;-63
2022/05/07 03:25:10;;;;;;;8.45;7.75;;;;;;;;;;5054661;28;20043;-63
2022/05/07 03:27:35;;;;;;;7.03;6.43;;;;;;;;;;5053046;28;20442;-63
2022/05/07 03:30:01;;;;;;;6.85;6.35;;;;;;;;;;5053725;28;20084;-63
2022/05/07 03:32:26;;;;;;;7.43;6.93;;;;;;;;;;5070509;28;20028;-62
2022/05/07 03:34:51;;;;;;;6.65;6.18;;;;;;;;;;5054426;28;20043;-62
2022/05/07 03:37:17;;;;;;;7.03;6.53;;;;;;;;;;5052796;28;20037;-62
2022/05/07 03:39:42;;;;;;;7.00;6.50;;;;;;;;;;5053211;28;20032;-63
2022/05/07 03:42:07;;;;;;;7.63;6.28;;;;;;;;;;5053329;28;20037;-62
2022/05/07 03:44:33;;;;;;;6.88;6.38;;;;;;;;;;5052530;28;20044;-62
2022/05/07 03:46:58;;;;;;;6.20;5.78;;;;;;;;;;5062507;28;20032;-62
2022/05/07 03:49:24;;;;;;;7.93;7.43;;;;;;;;;;5053349;28;20029;-62
2022/05/07 03:54:33;;;;;;;6.82;6.32;;;;;;;;;;5052099;28;20660;-62
2022/05/07 03:56:58;;;;;;;6.85;6.35;;;;;;;;;;5053009;28;20024;-63
2022/05/07 03:59:24;;;;;;;8.05;7.53;;;;;;;;;;5053486;28;20045;-63
2022/05/07 04:01:49;;;;;;;7.72;7.13;;;;;;;;;;5053312;28;20112;-63
2022/05/07 04:04:15;;;;;;;8.23;7.53;;;;;;;;;;5053394;28;20098;-63
2022/05/07 04:06:40;;;;;;;7.90;7.40;;;;;;;;;;5052713;28;20028;-63
2022/05/07 04:09:05;;;;;;;7.70;7.20;;;;;;;;;;5054574;28;20094;-63
2022/05/07 04:11:30;;;;;;;6.45;6.03;;;;;;;;;;5051841;28;20032;-63
2022/05/07 04:13:56;;;;;;;7.00;6.50;;;;;;;;;;5053627;28;20035;-63
2022/05/07 04:16:21;;;;;;;7.55;6.95;;;;;;;;;;5054060;28;20056;-65
2022/05/07 04:18:47;;;;;;;7.22;6.72;;;;;;;;;;5050580;28;20410;-63
2022/05/07 04:21:12;;;;;;;7.22;6.72;;;;;;;;;;5052969;28;20029;-63
2022/05/07 04:23:37;;;;;;;7.30;6.70;;;;;;;;;;5061401;28;20499;-63
2022/05/07 04:26:03;;;;;;;7.15;6.65;;;;;;;;;;5050933;28;20751;-63
2022/05/07 04:28:28;;;;;;;6.93;6.43;;;;;;;;;;5052553;28;20032;-63
2022/05/07 04:30:53;;;;;;;6.63;6.13;;;;;;;;;;5054770;28;20048;-62
2022/05/07 04:33:19;;;;;;;6.60;6.10;;;;;;;;;;5053429;28;20077;-63
2022/05/07 04:35:44;;;;;;;7.55;7.05;;;;;;;;;;5053340;28;20041;-63
2022/05/07 04:38:10;;;;;;;6.05;5.65;;;;;;;;;;5054197;28;20044;-63
2022/05/07 04:40:35;;;;;;;6.20;5.70;;;;;;;;;;5066662;28;20568;-63
2022/05/07 04:43:00;;;;;;;6.80;6.30;;;;;;;;;;5053685;28;20478;-63
2022/05/07 04:45:27;;;;;;;7.10;6.60;;;;;;;;;;5054209;28;20074;-63
2022/05/07 04:47:53;;;;;;;6.80;6.30;;;;;;;;;;5051672;28;20032;-63
2022/05/07 04:50:18;;;;;;;7.07;6.47;;;;;;;;;;5052070;28;20087;-63
2022/05/07 04:52:43;;;;;;;7.30;6.80;;;;;;;;;;5052352;28;20043;-63
2022/05/07 04:55:09;;;;;;;7.18;6.68;;;;;;;;;;5051049;28;20033;-63
2022/05/07 04:57:34;;;;;;;7.45;6.95;;;;;;;;;;5052023;28;20028;-63
2022/05/07 05:00:00;;;;;;;6.60;6.10;;;;;;;;;;5051178;28;20032;-63
2022/05/07 05:02:25;;;;;;;6.95;6.45;;;;;;;;;;5053362;28;20037;-63
2022/05/07 05:04:51;;;;;;;7.30;6.80;;;;;;;;;;5051298;28;20052;-63
2022/05/07 05:07:16;;;;;;;7.07;6.57;;;;;;;;;;5049664;28;20032;-64
2022/05/07 05:09:42;;;;;;;8.68;8.07;;;;;;;;;;5053521;28;20032;-63
2022/05/07 05:12:07;;;;;;;6.95;6.45;;;;;;;;;;5052760;28;20131;-63
2022/05/07 05:17:17;;;;;;;7.93;7.32;;;;;;;;;;5056252;28;20579;-64
2022/05/07 05:19:42;;;;;;;7.95;7.35;;;;;;;;;;5053795;28;20037;-64
2022/05/07 05:22:07;;;;;;;7.00;6.50;;;;;;;;;;5052420;28;20110;-63
2022/05/07 05:24:33;;;;;;;7.35;6.85;;;;;;;;;;5057077;28;20041;-63
2022/05/07 05:26:58;;;;;;;7.63;7.13;;;;;;;;;;5052674;28;20047;-63
2022/05/07 05:29:23;;;;;;;7.13;6.63;;;;;;;;;;5051954;28;20031;-63
2022/05/07 05:31:49;;;;;;;8.55;7.90;;;;;;;;;;5055663;28;20114;-63
2022/05/07 05:34:14;;;;;;;7.95;7.45;;;;;;;;;;5049932;28;20036;-63
2022/05/07 05:36:40;;;;;;;8.35;7.68;;;;;;;;;;5050247;28;20069;-63
2022/05/07 05:39:07;;;;;;;8.25;7.65;;;;;;;;;;5052609;28;20138;-63
2022/05/07 05:41:33;;;;;;;7.88;7.38;;;;;;;;;;5051419;28;20460;-63
2022/05/07 05:43:59;;;;;;;9.05;8.45;;;;;;;;;;5049770;28;20029;-63
2022/05/07 05:46:25;;;;;;;8.70;8.13;;;;;;;;;;5053469;28;20654;-63
2022/05/07 05:48:50;;;;;;;9.90;9.25;;;;;;;;;;5052572;28;20696;-63
2022/05/07 05:51:15;;;;;;;9.35;8.65;;;;;;;;;;5052268;28;20044;-63
2022/05/07 05:53:41;;;;;;;9.90;9.30;;;;;;;;;;5053224;28;20105;-63
2022/05/07 05:56:06;;;;;;;9.95;9.10;;;;;;;;;;5047991;28;20056;-63
2022/05/07 05:58:35;;;;;;;9.35;8.75;;;;;;;;;;5048876;28;20025;-63
2022/05/07 06:01:02;;;;;;;9.52;8.93;;;;;;;;;;5048915;28;20100;-64
2022/05/07 06:03:28;;;;;;;9.88;9.27;;;;;;;;;;5050648;28;20496;-63
2022/05/07 06:05:54;;;;;;;9.38;8.77;;;;;;;;;;5048499;28;20036;-63
2022/05/07 06:08:19;;;;;;;9.50;8.88;;;;;;;;;;5053245;28;20488;-63
2022/05/07 06:10:45;;;;;;;9.50;8.90;;;;;;;;;;5052479;28;20029;-63
2022/05/07 06:13:10;;;;;;;10.02;9.23;;;;;;;;;;5051751;28;20108;-63
2022/05/07 06:15:37;;;;;;;9.93;9.23;;;;;;;;;;5049726;28;20469;-63
2022/05/07 06:18:03;;;;;;;9.90;9.20;;;;;;;;;;5049694;28;20035;-63
2022/05/07 06:20:28;;;;;;;8.98;8.38;;;;;;;;;;5049196;28;20041;-64
2022/05/07 06:22:58;;;;;;;8.77;8.07;;;;;;;;;;5052067;28;20021;-63
2022/05/07 06:28:08;;;;;;;8.63;8.00;;;;;;;;;;5051354;28;20094;-64
2022/05/07 06:30:35;;;;;;;7.80;7.30;;;;;;;;;;5047591;28;20040;-64
2022/05/07 06:33:01;;;;;;;7.32;6.82;;;;;;;;;;5051300;28;20068;-64
2022/05/07 06:35:27;;;;;;;8.30;7.70;;;;;;;;;;5052126;28;20028;-63
2022/05/07 06:37:53;;;;;;;9.40;8.80;;;;;;;;;;5049625;28;20038;-64
2022/05/07 06:40:18;;;;;;;9.10;8.40;;;;;;;;;;5048762;28;20033;-64
2022/05/07 06:42:45;;;;;;;6.93;6.38;;;;;;;;;;5055000;28;20158;-64
2022/05/07 06:45:11;;;;;;;7.65;7.07;;;;;;;;;;5050388;28;20041;-64
2022/05/07 06:47:37;;;;;;;9.27;8.68;;;;;;;;;;5054545;28;20052;-64
2022/05/07 06:50:03;;;;;;;8.43;7.88;;;;;;;;;;5053458;28;20071;-64
2022/05/07 06:52:30;;;;;;;8.95;8.35;;;;;;;;;;5052531;28;20120;-65
2022/05/07 06:54:55;;;;;;;10.23;9.57;;;;;;;;;;5055088;28;20027;-65
2022/05/07 06:57:23;;;;;;;8.85;8.25;;;;;;;;;;5046574;28;20063;-65
2022/05/07 06:59:48;;;;;;;14.70;13.80;;;;;;;;;;5051383;28;20068;-65
2022/05/07 07:02:13;;;;;;;16.40;15.30;;;;;;;;;;5050264;28;20101;-65
2022/05/07 07:04:39;;;;;;;16.13;15.23;;;;;;;;;;5048180;28;20028;-65
2022/05/07 07:07:05;;;;;;;13.88;13.07;;;;;;;;;;5050503;28;20039;-65
2022/05/07 07:09:30;;;;;;;17.02;16.08;;;;;;;;;;5053895;28;20072;-65
2022/05/07 07:11:56;;;;;;;15.90;15.00;;;;;;;;;;5053861;28;20109;-65
2022/05/07 07:14:21;;;;;;;18.75;17.73;;;;;;;;;;5062851;28;20028;-65
2022/05/07 07:16:47;;;;;;;12.40;11.70;;;;;;;;;;5055478;28;20829;-66
2022/05/07 07:19:16;;;;;;;25.90;24.50;;;;;;;;;;5050139;28;20124;-65
2022/05/07 07:21:42;;;;;;;10.00;9.40;;;;;;;;;;5053790;28;20064;-66
2022/05/07 07:24:07;;;;;;;11.55;10.85;;;;;;;;;;5054524;28;20115;-65
2022/05/07 07:26:33;;;;;;;12.32;11.60;;;;;;;;;;5049826;28;20116;-66
2022/05/07 07:28:58;;;;;;;13.77;12.88;;;;;;;;;;5053958;28;20036;-66
2022/05/07 07:31:23;;;;;;;9.55;8.95;;;;;;;;;;5062076;28;20029;-66
2022/05/07 07:33:49;;;;;;;11.18;10.48;;;;;;;;;;5054361;28;20029;-66
2022/05/07 07:36:14;;;;;;;11.38;10.68;;;;;;;;;;5053607;28;20128;-66
2022/05/07 07:38:39;;;;;;;11.48;10.68;;;;;;;;;;5053751;28;20060;-66
2022/05/07 07:41:05;;;;;;;11.75;11.05;;;;;;;;;;5051517;28;20128;-66
2022/05/07 07:43:31;;;;;;;15.13;14.23;;;;;;;;;;5050393;28;20386;-67
2022/05/07 07:48:41;;;;;;;12.13;11.38;;;;;;;;;;5055367;28;20036;-66
2022/05/07 07:51:07;;;;;;;13.88;13.05;;;;;;;;;;5050299;28;20044;-66
2022/05/07 07:53:36;;;;;;;28.83;27.33;;;;;;;;;;5049014;28;20032;-67
2022/05/07 07:56:03;;;;;;;15.75;14.77;;;;;;;;;;5056911;28;20031;-67
2022/05/07 07:58:29;;;;;;;14.68;13.85;;;;;;;;;;5052923;28;20036;-66
2022/05/07 08:00:54;;;;;;;13.65;12.75;;;;;;;;;;5052177;28;20370;-66
2022/05/07 08:03:20;;;;;;;23.77;22.50;;;;;;;;;;5054112;28;20040;-65
2022/05/07 08:05:48;;;;;;;19.00;17.90;;;;;;;;;;5053246;28;20040;-67
2022/05/07 08:13:47;;;;;;;14.65;13.82;;;;;;;;;;5051746;28;20157;-68
2022/05/07 08:16:14;;;;;;;16.58;15.65;;;;;;;;;;5031302;28;20049;-63
2022/05/07 08:18:41;;;;;;;23.77;22.50;;;;;;;;;;5054361;28;20032;-62
2022/05/07 08:21:08;;;;;;;26.77;25.38;;;;;;;;;;5050297;28;20083;-63
2022/05/07 08:23:34;;;;;;;19.20;18.05;;;;;;;;;;5052235;28;20366;-63
2022/05/07 08:26:02;;;;;;;15.93;15.02;;;;;;;;;;5053167;28;20536;-63
2022/05/07 08:28:28;;;;;;;18.10;17.10;;;;;;;;;;5053481;28;20052;-63
2022/05/07 08:30:53;;;;;;;23.88;22.60;;;;;;;;;;5054815;28;20521;-63
2022/05/07 08:33:19;;;;;;;15.90;15.00;;;;;;;;;;5052006;28;20036;-63
2022/05/07 08:35:45;;;;;;;15.43;14.52;;;;;;;;;;5052306;28;20057;-64
2022/05/07 08:38:11;;;;;;;25.52;24.13;;;;;;;;;;5047081;28;20604;-62
2022/05/07 08:40:38;;;;;;;13.55;12.68;;;;;;;;;;5060273;28;20036;-67
2022/05/07 08:43:03;;;;;;;22.08;20.88;;;;;;;;;;5063434;28;20028;-61
2022/05/07 08:45:29;;;;;;;16.33;15.43;;;;;;;;;;5063134;28;20048;-62
2022/05/07 08:47:54;;;;;;;16.02;15.13;;;;;;;;;;5066255;28;20032;-62
2022/05/07 08:50:21;;;;;;;13.07;12.27;;;;;;;;;;5063372;28;20044;-62
2022/05/07 08:52:47;;;;;;;16.88;15.90;;;;;;;;;;5060541;28;20916;-61
2022/05/07 08:55:14;;;;;;;15.00;14.15;;;;;;;;;;5060994;28;20025;-62
2022/05/07 08:57:42;;;;;;;16.35;15.45;;;;;;;;;;5060948;28;20032;-62
2022/05/07 09:00:12;;;;;;;15.82;14.93;;;;;;;;;;5059079;28;20036;-63
2022/05/07 09:02:39;;;;;;;28.63;27.08;;;;;;;;;;5057394;28;20127;-63
2022/05/07 09:05:05;;;;;;;23.10;21.88;;;;;;;;;;5062100;28;20040;-63
2022/05/07 09:07:31;;;;;;;38.00;36.05;;;;;;;;;;5063494;28;20043;-63
2022/05/07 09:09:57;;;;;;;30.52;28.92;;;;;;;;;;5063190;28;20025;-62
2022/05/07 09:12:29;;;;;;;29.60;28.02;;;;;;;;;;5063719;28;20027;-63
2022/05/07 09:15:03;;;;;;;29.35;27.83;;;;;;;;;;5079457;28;20052;-62
2022/05/07 09:17:29;;;;;;;36.25;34.38;;;;;;;;;;5063281;28;20517;-63
2022/05/07 09:19:54;;;;;;;38.50;36.53;;;;;;;;;;5063345;28;20081;-63
2022/05/07 09:22:20;;;;;;;39.75;37.75;;;;;;;;;;5062843;28;20036;-62
2022/05/07 09:24:56;;;;;;;27.88;26.23;;;;;;;;;;5064324;28;20020;-62
2022/05/07 09:27:22;;;;;;;43.38;41.17;;;;;;;;;;5063086;28;20040;-62
2022/05/07 09:30:08;;;;;;;46.80;44.42;;;;;;;;;;5060250;28;20032;-63
2022/05/07 09:32:38;;;;;;;34.55;32.75;;;;;;;;;;5061334;28;20515;-62
2022/05/07 09:38:01;;;;;;;16.60;15.70;;;;;;;;;;5062789;28;20083;-62
2022/05/07 09:40:30;;;;;;;29.95;27.98;;;;;;;;;;5079296;28;20024;-62
2022/05/07 09:42:57;;;;;;;44.67;42.38;;;;;;;;;;5063793;28;20066;-62
2022/05/07 09:45:27;;;;;;;25.45;24.10;;;;;;;;;;5064171;28;20025;-62
2022/05/07 09:47:59;;;;;;;16.70;15.70;;;;;;;;;;5078470;28;20037;-63
2022/05/07 09:58:32;;;;;;;13.82;13.02;;;;;;;;;;5079437;28;20059;-62
2022/05/07 10:01:10;;;;;;;13.43;12.63;;;;;;;;;;5064538;28;20039;-62
2022/05/07 10:03:40;;;;;;;14.70;13.80;;;;;;;;;;5062379;28;20047;-63
2022/05/07 10:06:23;;;;;;;12.70;11.90;;;;;;;;;;5064094;28;20028;-64
2022/05/07 10:08:55;;;;;;;13.85;13.05;;;;;;;;;;5063323;28;20025;-62
2022/05/07 10:11:20;;;;;;;12.80;12.07;;;;;;;;;;5063391;28;20182;-62
2022/05/07 10:13:56;;;;;;;16.25;15.30;;;;;;;;;;5062621;28;20036;-68
2022/05/07 10:16:22;;;;;;;15.63;14.73;;;;;;;;;;5064444;28;20025;-67
2022/05/07 10:18:48;;;;;;;18.10;17.02;;;;;;;;;;5060071;28;20115;-62
2022/05/07 10:21:15;;;;;;;17.92;16.92;;;;;;;;;;5063576;28;20139;-65
2022/05/07 10:23:55;;;;;;;22.20;21.00;;;;;;;;;;5068449;28;20127;-67
2022/05/07 10:26:23;;;;;;;16.73;15.80;;;;;;;;;;5066989;28;20039;-68
2022/05/07 10:28:49;;;;;;;23.42;22.15;;;;;;;;;;5065623;28;20032;-62
2022/05/07 10:31:19;;;;;;;24.25;22.95;;;;;;;;;;5065564;28;20036;-62
2022/05/07 10:33:45;;;;;;;;;;;;;;;;;;5063517;28;20067;-68
2022/05/07 10:36:10;;;;;;;15.82;14.93;;;;;;;;;;5066576;28;19963;-69
2022/05/07 10:38:38;;;;;;;29.88;28.33;;;;;;;;;;5064777;28;20036;-61
2022/05/07 10:41:09;;;;;;;36.22;34.38;;;;;;;;;;5063016;28;20123;-62
2022/05/07 10:43:38;;;;;;;33.90;32.13;;;;;;;;;;5063713;28;20119;-62
2022/05/07 10:46:07;;;;;;;38.53;36.53;;;;;;;;;;5061922;28;20032;-62
2022/05/07 10:49:12;;;;;;;26.45;25.02;;;;;;;;;;5066036;28;20039;-61
2022/05/07 10:51:50;;;;;;;54.47;51.70;;;;;;;;;;5067071;28;20056;-62
2022/05/07 10:54:18;;;;;;;54.28;51.53;;;;;;;;;;5066494;28;20500;-61
2022/05/07 10:56:53;;;;;;;25.38;24.02;;;;;;;;;;5066405;28;20052;-61
2022/05/07 10:59:20;;;;;;;28.00;26.52;;;;;;;;;;5065621;28;20043;-61
2022/05/07 11:01:46;;;;;;;30.95;29.35;;;;;;;;;;5067088;28;20140;-61
2022/05/07 11:04:13;;;;;;;84.90;80.70;;;;;;;;;;5064421;28;20104;-61
2022/05/07 11:06:53;;;;;;;77.72;73.88;;;;;;;;;;5066800;28;20779;-61
2022/05/07 11:09:21;;;;;;;62.22;59.08;;;;;;;;;;5066265;28;20058;-62
2022/05/07 11:11:49;;;;;;;80.88;76.35;;;;;;;;;;5066488;28;20032;-61
2022/05/07 11:14:30;;;;;;;82.90;78.80;;;;;;;;;;5067202;28;20178;-62
2022/05/07 11:16:57;;;;;;;55.65;52.85;;;;;;;;;;5066966;28;20140;-61
2022/05/07 11:19:31;;;;;;;89.43;85.03;;;;;;;;;;5063031;28;20117;-65
2022/05/07 11:21:57;;;;;;;83.78;79.50;;;;;;;;;;5066256;28;20028;-61
2022/05/07 11:24:26;;;;;;;96.80;91.95;;;;;;;;;;5065599;28;20032;-61
2022/05/07 11:26:57;;;;;;;97.63;92.80;;;;;;;;;;5065822;28;20509;-61
2022/05/07 11:29:23;;;;;;;103.25;97.95;;;;;;;;;;5063948;28;20044;-62
2022/05/07 11:32:00;;;;;;;88.05;83.60;;;;;;;;;;5061802;28;20036;-62
2022/05/07 11:34:31;;;;;;;105.15;99.95;;;;;;;;;;5078695;28;20449;-61
2022/05/07 11:37:09;;;;;;;74.45;69.57;;;;;;;;;;5064169;28;20484;-66
2022/05/07 11:39:44;;;;;;;96.45;91.70;;;;;;;;;;5064103;28;20101;-68
2022/05/07 11:42:10;;;;;;;116.45;110.78;;;;;;;;;;5065727;28;20025;-66
2022/05/07 11:47:21;;;;;;;108.82;103.40;;;;;;;;;;5064942;28;20037;-67
2022/05/07 11:49:59;;;;;;;101.32;96.30;;;;;;;;;;5064502;28;20458;-66
2022/05/07 11:52:28;;;;;;;95.30;90.57;;;;;;;;;;5066333;28;20094;-67
2022/05/07 11:54:54;;;;;;;73.00;69.35;;;;;;;;;;5066186;28;20024;-66
2022/05/07 11:57:29;;;;;;;77.38;73.53;;;;;;;;;;5064827;28;20097;-67
2022/05/07 11:59:55;;;;;;;70.93;67.38;;;;;;;;;;5061825;28;20090;-66
2022/05/07 12:02:21;;;;;;;85.00;80.78;;;;;;;;;;5060977;28;20024;-67
2022/05/07 12:04:56;;;;;;;99.75;94.82;;;;;;;;;;5064160;28;20098;-65
2022/05/07 12:07:21;;;;;;;90.65;86.18;;;;;;;;;;5064730;28;20032;-66
2022/05/07 12:09:46;;;;;;;77.43;73.57;;;;;;;;;;5063159;28;20439;-67
2022/05/07 12:12:12;;;;;;;53.50;50.80;;;;;;;;;;5062004;28;20114;-66
2022/05/07 12:14:37;;;;;;;68.20;64.82;;;;;;;;;;5061152;28;20037;-67
2022/05/07 12:19:48;;;;;;;71.45;67.90;;;;;;;;;;5064385;28;20025;-65
2022/05/07 12:30:24;;;;;;;42.80;40.60;;;;;;;;;;5062686;28;20051;-65
2022/05/07 12:32:54;;;;;;;99.32;94.43;;;;;;;;;;5065564;28;20032;-66
2022/05/07 12:35:20;;;;;;;73.75;70.07;;;;;;;;;;5062654;28;20127;-68
2022/05/07 12:37:45;;;;;;;50.22;47.72;;;;;;;;;;5065869;28;20502;-66
2022/05/07 12:40:12;;;;;;;79.43;75.45;;;;;;;;;;5063339;28;20062;-67
2022/05/07 12:42:38;;;;;;;40.40;38.35;;;;;;;;;;5080261;28;20068;-67
2022/05/07 12:45:04;;;;;;;54.10;51.33;;;;;;;;;;5064916;28;20071;-67
2022/05/07 12:47:30;;;;;;;130.60;124.22;;;;;;;;;;5064365;28;20403;-68
2022/05/07 12:49:55;;;;;;;45.70;43.40;;;;;;;;;;5055159;28;20040;-68
2022/05/07 12:52:23;;;;;;;82.13;78.05;;;;;;;;;;5064249;28;20688;-68
2022/05/07 12:54:49;;;;;;;40.65;38.60;;;;;;;;;;5064244;28;20040;-65
2022/05/07 12:57:15;;;;;;;32.85;31.15;;;;;;;;;;5064660;28;20470;-65
2022/05/07 12:59:41;;;;;;;35.28;33.38;;;;;;;;;;5060763;28;20032;-65
2022/05/07 13:02:06;;;;;;;35.65;33.72;;;;;;;;;;5063038;28;20119;-66
2022/05/07 13:04:32;;;;;;;32.60;30.90;;;;;;;;;;5066221;28;20151;-67
2022/05/07 13:06:58;;;;;;;35.50;33.63;;;;;;;;;;5080911;28;20063;-66
2022/05/07 13:09:23;;;;;;;33.80;32.10;;;;;;;;;;5062505;28;20140;-67
2022/05/07 13:11:48;;;;;;;30.52;28.92;;;;;;;;;;5064076;28;20040;-66
2022/05/07 13:14:14;;;;;;;57.50;54.60;;;;;;;;;;5065344;28;20410;-67
2022/05/07 13:16:39;;;;;;;38.05;36.05;;;;;;;;;;5064437;28;20033;-68
2022/05/07 13:19:05;;;;;;;34.83;33.03;;;;;;;;;;5062459;28;20031;-67
2022/05/07 13:21:30;;;;;;;27.75;26.20;;;;;;;;;;5062748;28;20032;-66
2022/05/07 13:23:56;;;;;;;28.63;27.13;;;;;;;;;;5064342;28;20079;-65
2022/05/07 13:26:21;;;;;;;28.70;26.98;;;;;;;;;;5063616;28;20032;-65
2022/05/07 13:28:46;;;;;;;30.83;29.23;;;;;;;;;;5061832;28;20028;-66
2022/05/07 13:31:12;;;;;;;28.90;27.40;;;;;;;;;;5062452;28;20029;-66
2022/05/07 13:33:37;;;;;;;27.50;26.02;;;;;;;;;;5079504;28;20355;-65
2022/05/07 13:36:03;;;;;;;36.97;35.05;;;;;;;;;;5064695;28;20039;-66
2022/05/07 13:38:28;;;;;;;30.38;28.65;;;;;;;;;;5063651;28;20035;-67
2022/05/07 13:40:54;;;;;;;35.80;33.97;;;;;;;;;;5060309;28;20039;-67
2022/05/07 13:43:19;;;;;;;40.40;38.30;;;;;;;;;;5063088;28;20060;-67
2022/05/07 13:45:45;;;;;;;56.40;53.55;;;;;;;;;;5063616;28;20120;-67
2022/05/07 13:48:10;;;;;;;38.40;36.42;;;;;;;;;;5064354;28;20109;-68
2022/05/07 13:50:36;;;;;;;35.65;33.85;;;;;;;;;;5059915;28;20040;-67
2022/05/07 13:53:02;;;;;;;40.13;38.03;;;;;;;;;;5063932;28;20029;-66
2022/05/07 13:55:27;;;;;;;34.05;32.25;;;;;;;;;;5064682;28;20032;-66
2022/05/07 13:57:52;;;;;;;35.20;33.38;;;;;;;;;;5063290;28;20457;-66
2022/05/07 14:00:18;;;;;;;33.50;31.77;;;;;;;;;;5061386;28;20779;-66
2022/05/07 14:02:46;;;;;;;33.40;31.70;;;;;;;;;;5062486;28;20091;-66
2022/05/07 14:05:12;;;;;;;29.92;28.33;;;;;;;;;;5063101;28;20047;-65
2022/05/07 14:07:37;;;;;;;30.65;29.05;;;;;;;;;;5064414;28;20048;-65
2022/05/07 14:10:03;;;;;;;30.10;28.50;;;;;;;;;;5064291;28;20037;-66
2022/05/07 14:12:29;;;;;;;29.38;27.88;;;;;;;;;;5064380;28;20043;-66
2022/05/07 14:14:55;;;;;;;30.77;29.17;;;;;;;;;;5063927;28;20036;-65
2022/05/07 14:17:22;;;;;;;28.58;27.08;;;;;;;;;;5062959;28;20082;-67
2022/05/07 14:19:49;;;;;;;32.75;31.05;;;;;;;;;;5062218;28;20402;-67
2022/05/07 14:22:15;;;;;;;29.02;27.52;;;;;;;;;;5063344;28;20062;-66
2022/05/07 14:24:41;;;;;;;28.80;27.30;;;;;;;;;;5064140;28;20032;-65
2022/05/07 14:27:06;;;;;;;43.60;41.38;;;;;;;;;;5080341;28;20059;-66
2022/05/07 14:29:31;;;;;;;45.60;43.22;;;;;;;;;;5063284;28;20173;-67
2022/05/07 14:31:59;;;;;;;34.53;32.72;;;;;;;;;;5063271;28;20024;-64
2022/05/07 14:34:25;;;;;;;29.63;28.08;;;;;;;;;;5063435;28;20028;-64
2022/05/07 14:36:50;;;;;;;33.40;31.60;;;;;;;;;;5063308;28;20037;-65
2022/05/07 14:39:16;;;;;;;29.83;28.27;;;;;;;;;;5062969;28;20670;-65
2022/05/07 14:41:41;;;;;;;32.72;30.95;;;;;;;;;;5080364;28;20152;-66
2022/05/07 14:44:07;;;;;;;29.35;27.85;;;;;;;;;;5062605;28;20033;-66
2022/05/07 14:46:34;;;;;;;33.28;31.58;;;;;;;;;;5063549;28;20492;-66
2022/05/07 14:48:59;;;;;;;31.50;29.90;;;;;;;;;;5063229;28;20496;-65
2022/05/07 14:51:26;;;;;;;30.98;29.35;;;;;;;;;;5063916;28;20044;-66
2022/05/07 14:53:51;;;;;;;31.00;29.40;;;;;;;;;;5061645;28;20446;-65
2022/05/07 14:56:17;;;;;;;29.63;28.08;;;;;;;;;;5063220;28;20039;-66
2022/05/07 14:58:42;;;;;;;32.75;31.05;;;;;;;;;;5061912;28;20029;-65
2022/05/07 15:01:08;;;;;;;40.15;38.08;;;;;;;;;;5064359;28;20090;-66
2022/05/07 15:03:34;;;;;;;38.60;36.60;;;;;;;;;;5061991;28;20032;-65
2022/05/07 15:06:01;;;;;;;39.78;37.78;;;;;;;;;;5055506;28;20027;-65
2022/05/07 15:11:11;;;;;;;43.25;41.05;;;;;;;;;;5066198;28;20472;-66
2022/05/07 15:13:37;;;;;;;51.28;48.65;;;;;;;;;;5066369;28;20024;-66
2022/05/07 15:16:02;;;;;;;43.97;41.67;;;;;;;;;;5066742;28;20029;-66
2022/05/07 15:18:28;;;;;;;90.18;85.75;;;;;;;;;;5066807;28;20044;-66
2022/05/07 15:20:53;;;;;;;69.80;66.30;;;;;;;;;;5066041;28;20064;-67